Ajax, Canada
Current Conditions -  °F | °C
As of 9:00 PM on Sunday 21 Dec 2014 (Local Time) from CYKZ Reporting Station
Overcast Overcast  
Wind Chill: 30°   Ceiling: 2700
Heat Index: 30°   Visibility: 15mi
Dew Point: 23°   Wind: 2mph
Humidity: 75%   Direction: 130°SE
Pressure: 30.29"   Gusts: NA
Location:  43.85°N, 79.02°W
Report Text: CYKZ 220200Z 13002KT 15SM OVC027 M01/M05 A3029 RMK SC8 SLP266
Loading
Personal Weather Stations






























Interactive Weather Map New forecast layout! Learn more

10-Day Weather Forecast

Advertisements
Track Severe Weather on mobile